sensor_id;sensor_type;location;lat;lon;timestamp;pressure;altitude;pressure_sealevel;temperature
82636;BMP280;72317;37.280;-121.948;2024-03-23T00:55:11;98256.19;;;16.98
82636;BMP280;72317;37.280;-121.948;2024-03-23T01:00:12;98327.03;;;16.88
82636;BMP280;72317;37.280;-121.948;2024-03-23T01:05:13;98435.53;;;17.14
82636;BMP280;72317;37.280;-121.948;2024-03-23T01:10:14;98360.75;;;16.78
82636;BMP280;72317;37.280;-121.948;2024-03-23T01:15:14;98352.16;;;16.79
82636;BMP280;72317;37.280;-121.948;2024-03-23T01:20:15;98267.97;;;16.72
82636;BMP280;72317;37.280;-121.948;2024-03-23T01:25:16;98295.69;;;16.81
82636;BMP280;72317;37.280;-121.948;2024-03-23T01:30:17;98285.16;;;16.59
82636;BMP280;72317;37.280;-121.948;2024-03-23T01:35:18;98286.25;;;16.53
82636;BMP280;72317;37.280;-121.948;2024-03-23T01:40:18;98220.94;;;16.54
82636;BMP280;72317;37.280;-121.948;2024-03-23T01:45:19;98199.66;;;16.23
82636;BMP280;72317;37.280;-121.948;2024-03-23T01:50:20;98211.22;;;16.24
82636;BMP280;72317;37.280;-121.948;2024-03-23T01:55:21;98160.56;;;16.33
82636;BMP280;72317;37.280;-121.948;2024-03-23T02:00:22;98182.59;;;16.41
82636;BMP280;72317;37.280;-121.948;2024-03-23T02:05:23;98058.53;;;16.14
82636;BMP280;72317;37.280;-121.948;2024-03-23T02:10:24;97858.44;;;15.97
82636;BMP280;72317;37.280;-121.948;2024-03-23T02:15:24;97721.47;;;15.97
82636;BMP280;72317;37.280;-121.948;2024-03-23T02:20:25;97473.53;;;15.96
82636;BMP280;72317;37.280;-121.948;2024-03-23T02:25:26;97593.47;;;15.69
82636;BMP280;72317;37.280;-121.948;2024-03-23T02:30:27;97639.72;;;15.62
82636;BMP280;72317;37.280;-121.948;2024-03-23T02:35:27;97586.97;;;15.61
82636;BMP280;72317;37.280;-121.948;2024-03-23T02:40:29;97655.50;;;15.34
82636;BMP280;72317;37.280;-121.948;2024-03-23T02:45:30;97611.38;;;15.52
82636;BMP280;72317;37.280;-121.948;2024-03-23T02:50:31;97589.84;;;15.37
82636;BMP280;72317;37.280;-121.948;2024-03-23T02:55:31;97570.19;;;15.51
82636;BMP280;72317;37.280;-121.948;2024-03-23T03:00:33;97625.75;;;15.78
82636;BMP280;72317;37.280;-121.948;2024-03-23T03:05:33;97737.78;;;15.44
82636;BMP280;72317;37.280;-121.948;2024-03-23T03:10:34;97558.22;;;15.37
82636;BMP280;72317;37.280;-121.948;2024-03-23T03:15:35;97572.91;;;15.71
82636;BMP280;72317;37.280;-121.948;2024-03-23T03:20:42;97487.53;;;15.13
82636;BMP280;72317;37.280;-121.948;2024-03-23T03:25:43;97417.00;;;15.00
82636;BMP280;72317;37.280;-121.948;2024-03-23T03:30:45;97568.41;;;15.13
82636;BMP280;72317;37.280;-121.948;2024-03-23T03:35:45;97688.78;;;15.01
82636;BMP280;72317;37.280;-121.948;2024-03-23T03:40:46;98142.06;;;14.48
82636;BMP280;72317;37.280;-121.948;2024-03-23T03:45:54;98317.75;;;14.43
82636;BMP280;72317;37.280;-121.948;2024-03-23T03:50:55;98398.13;;;14.45
82636;BMP280;72317;37.280;-121.948;2024-03-23T03:56:00;98307.50;;;14.78
82636;BMP280;72317;37.280;-121.948;2024-03-23T04:01:01;98318.78;;;14.46
82636;BMP280;72317;37.280;-121.948;2024-03-23T04:06:01;98494.06;;;14.51
82636;BMP280;72317;37.280;-121.948;2024-03-23T04:11:02;98777.63;;;14.56
82636;BMP280;72317;37.280;-121.948;2024-03-23T04:16:03;99090.75;;;14.79
82636;BMP280;72317;37.280;-121.948;2024-03-23T04:21:04;99192.03;;;14.64
82636;BMP280;72317;37.280;-121.948;2024-03-23T04:26:05;99340.88;;;14.39
82636;BMP280;72317;37.280;-121.948;2024-03-23T04:31:06;99166.88;;;14.26
82636;BMP280;72317;37.280;-121.948;2024-03-23T04:36:07;99337.78;;;13.85
82636;BMP280;72317;37.280;-121.948;2024-03-23T04:41:07;99185.47;;;13.51
82636;BMP280;72317;37.280;-121.948;2024-03-23T04:46:08;99070.41;;;13.72
82636;BMP280;72317;37.280;-121.948;2024-03-23T04:51:09;99029.22;;;13.75
82636;BMP280;72317;37.280;-121.948;2024-03-23T04:56:10;98982.91;;;13.51
82636;BMP280;72317;37.280;-121.948;2024-03-23T05:01:11;99174.06;;;13.44
82636;BMP280;72317;37.280;-121.948;2024-03-23T05:06:12;99108.19;;;13.52
82636;BMP280;72317;37.280;-121.948;2024-03-23T05:11:13;99030.13;;;13.36
82636;BMP280;72317;37.280;-121.948;2024-03-23T05:16:14;99082.28;;;13.22
82636;BMP280;72317;37.280;-121.948;2024-03-23T05:21:14;99066.88;;;13.06
82636;BMP280;72317;37.280;-121.948;2024-03-23T05:26:15;99209.00;;;12.84
82636;BMP280;72317;37.280;-121.948;2024-03-23T05:31:26;99248.63;;;13.04
82636;BMP280;72317;37.280;-121.948;2024-03-23T05:36:27;99204.28;;;13.12
82636;BMP280;72317;37.280;-121.948;2024-03-23T05:41:28;99258.94;;;12.85
82636;BMP280;72317;37.280;-121.948;2024-03-23T05:46:29;99335.81;;;12.79
82636;BMP280;72317;37.280;-121.948;2024-03-23T05:51:29;99360.44;;;12.74
82636;BMP280;72317;37.280;-121.948;2024-03-23T05:56:30;99389.69;;;12.95
82636;BMP280;72317;37.280;-121.948;2024-03-23T06:01:31;99364.72;;;12.72
82636;BMP280;72317;37.280;-121.948;2024-03-23T06:06:32;99341.38;;;12.92
82636;BMP280;72317;37.280;-121.948;2024-03-23T06:11:32;99331.81;;;12.64
82636;BMP280;72317;37.280;-121.948;2024-03-23T06:16:33;99402.09;;;12.62
82636;BMP280;72317;37.280;-121.948;2024-03-23T06:21:34;99395.91;;;12.92
82636;BMP280;72317;37.280;-121.948;2024-03-23T06:26:34;99346.84;;;12.85
82636;BMP280;72317;37.280;-121.948;2024-03-23T06:31:35;99298.41;;;12.88
82636;BMP280;72317;37.280;-121.948;2024-03-23T06:36:36;99440.81;;;12.31
82636;BMP280;72317;37.280;-121.948;2024-03-23T06:41:37;99372.88;;;12.64
82636;BMP280;72317;37.280;-121.948;2024-03-23T06:46:37;99298.41;;;12.65
82636;BMP280;72317;37.280;-121.948;2024-03-23T06:51:38;99247.13;;;12.52
82636;BMP280;72317;37.280;-121.948;2024-03-23T06:56:39;99236.94;;;12.67
82636;BMP280;72317;37.280;-121.948;2024-03-23T07:01:40;99209.53;;;12.76
82636;BMP280;72317;37.280;-121.948;2024-03-23T07:06:44;99200.09;;;12.67
82636;BMP280;72317;37.280;-121.948;2024-03-23T07:11:45;99115.56;;;12.72
82636;BMP280;72317;37.280;-121.948;2024-03-23T07:16:45;99060.31;;;12.71
82636;BMP280;72317;37.280;-121.948;2024-03-23T07:21:46;98994.06;;;12.61
82636;BMP280;72317;37.280;-121.948;2024-03-23T07:26:47;98985.97;;;12.45
82636;BMP280;72317;37.280;-121.948;2024-03-23T07:31:47;98933.06;;;12.42
82636;BMP280;72317;37.280;-121.948;2024-03-23T07:36:48;98923.16;;;12.38
82636;BMP280;72317;37.280;-121.948;2024-03-23T07:41:49;98916.63;;;12.39
82636;BMP280;72317;37.280;-121.948;2024-03-23T07:46:50;98961.34;;;12.46
82636;BMP280;72317;37.280;-121.948;2024-03-23T07:51:50;98999.88;;;12.39
82636;BMP280;72317;37.280;-121.948;2024-03-23T07:56:51;98964.00;;;12.50
82636;BMP280;72317;37.280;-121.948;2024-03-23T08:01:52;98977.63;;;12.39
82636;BMP280;72317;37.280;-121.948;2024-03-23T08:06:53;99011.13;;;12.11
82636;BMP280;72317;37.280;-121.948;2024-03-23T08:11:53;99084.13;;;12.02
82636;BMP280;72317;37.280;-121.948;2024-03-23T08:16:54;99061.59;;;11.96
82636;BMP280;72317;37.280;-121.948;2024-03-23T08:21:55;99012.66;;;11.89
82636;BMP280;72317;37.280;-121.948;2024-03-23T08:26:56;98986.44;;;11.96
82636;BMP280;72317;37.280;-121.948;2024-03-23T08:31:56;98932.44;;;11.94
82636;BMP280;72317;37.280;-121.948;2024-03-23T08:36:57;98868.28;;;12.20
82636;BMP280;72317;37.280;-121.948;2024-03-23T08:41:58;98831.81;;;12.22
82636;BMP280;72317;37.280;-121.948;2024-03-23T08:46:59;98810.06;;;12.17
82636;BMP280;72317;37.280;-121.948;2024-03-23T08:51:59;98833.28;;;11.87
82636;BMP280;72317;37.280;-121.948;2024-03-23T08:57:00;98820.19;;;11.89
82636;BMP280;72317;37.280;-121.948;2024-03-23T09:02:01;98812.22;;;11.86
82636;BMP280;72317;37.280;-121.948;2024-03-23T09:07:02;98782.91;;;11.95
82636;BMP280;72317;37.280;-121.948;2024-03-23T09:12:03;98779.69;;;11.84
82636;BMP280;72317;37.280;-121.948;2024-03-23T09:17:04;98781.19;;;11.85
82636;BMP280;72317;37.280;-121.948;2024-03-23T09:22:04;98781.19;;;11.85
82636;BMP280;72317;37.280;-121.948;2024-03-23T09:27:05;98787.44;;;11.58
82636;BMP280;72317;37.280;-121.948;2024-03-23T09:32:06;98839.31;;;11.28
82636;BMP280;72317;37.280;-121.948;2024-03-23T09:37:06;98773.16;;;11.21
82636;BMP280;72317;37.280;-121.948;2024-03-23T09:42:07;98717.31;;;11.40
82636;BMP280;72317;37.280;-121.948;2024-03-23T09:47:08;98787.53;;;11.31
82636;BMP280;72317;37.280;-121.948;2024-03-23T09:52:09;98869.78;;;11.14
82636;BMP280;72317;37.280;-121.948;2024-03-23T09:57:10;98901.97;;;11.38
82636;BMP280;72317;37.280;-121.948;2024-03-23T10:02:11;98920.34;;;11.36
82636;BMP280;72317;37.280;-121.948;2024-03-23T10:07:18;98931.25;;;10.98
82636;BMP280;72317;37.280;-121.948;2024-03-23T10:12:19;98913.31;;;10.64
82636;BMP280;72317;37.280;-121.948;2024-03-23T10:17:22;98772.47;;;10.71
82636;BMP280;72317;37.280;-121.948;2024-03-23T10:22:23;98710.56;;;10.65
82636;BMP280;72317;37.280;-121.948;2024-03-23T10:27:24;98669.09;;;10.73
82636;BMP280;72317;37.280;-121.948;2024-03-23T10:32:25;98680.13;;;10.55
82636;BMP280;72317;37.280;-121.948;2024-03-23T10:37:26;98749.78;;;10.25
82636;BMP280;72317;37.280;-121.948;2024-03-23T10:42:26;98793.16;;;10.43
82636;BMP280;72317;37.280;-121.948;2024-03-23T10:47:27;98802.22;;;10.49
82636;BMP280;72317;37.280;-121.948;2024-03-23T10:52:28;98811.34;;;10.52
82636;BMP280;72317;37.280;-121.948;2024-03-23T10:57:55;98811.09;;;10.43
82636;BMP280;72317;37.280;-121.948;2024-03-23T11:02:57;98867.78;;;10.38
82636;BMP280;72317;37.280;-121.948;2024-03-23T11:07:58;98845.72;;;10.57
82636;BMP280;72317;37.280;-121.948;2024-03-23T11:13:22;98881.91;;;10.38
82636;BMP280;72317;37.280;-121.948;2024-03-23T11:18:22;98923.94;;;10.41
82636;BMP280;72317;37.280;-121.948;2024-03-23T11:23:29;98962.78;;;10.22
82636;BMP280;72317;37.280;-121.948;2024-03-23T11:28:30;98970.81;;;10.22
82636;BMP280;72317;37.280;-121.948;2024-03-23T11:33:31;98970.31;;;10.31
82636;BMP280;72317;37.280;-121.948;2024-03-23T11:38:36;98999.44;;;10.25
82636;BMP280;72317;37.280;-121.948;2024-03-23T11:43:37;99001.44;;;10.55
82636;BMP280;72317;37.280;-121.948;2024-03-23T11:48:38;98974.91;;;10.68
82636;BMP280;72317;37.280;-121.948;2024-03-23T11:53:38;98968.97;;;10.53
82636;BMP280;72317;37.280;-121.948;2024-03-23T11:58:39;98913.88;;;10.83
82636;BMP280;72317;37.280;-121.948;2024-03-23T12:03:44;98886.78;;;10.77
82636;BMP280;72317;37.280;-121.948;2024-03-23T12:08:45;98874.84;;;10.82
82636;BMP280;72317;37.280;-121.948;2024-03-23T12:13:46;98904.25;;;10.58
82636;BMP280;72317;37.280;-121.948;2024-03-23T12:18:48;98976.25;;;10.83
82636;BMP280;72317;37.280;-121.948;2024-03-23T12:23:49;98997.50;;;10.98
82636;BMP280;72317;37.280;-121.948;2024-03-23T12:28:50;99060.81;;;10.84
82636;BMP280;72317;37.280;-121.948;2024-03-23T12:33:51;99045.88;;;10.87
82636;BMP280;72317;37.280;-121.948;2024-03-23T12:38:51;99026.44;;;10.42
82636;BMP280;72317;37.280;-121.948;2024-03-23T12:43:52;98966.84;;;10.72
82636;BMP280;72317;37.280;-121.948;2024-03-23T12:48:53;98892.22;;;10.40
82636;BMP280;72317;37.280;-121.948;2024-03-23T12:53:53;98876.97;;;10.37
82636;BMP280;72317;37.280;-121.948;2024-03-23T12:58:55;98900.47;;;10.22
82636;BMP280;72317;37.280;-121.948;2024-03-23T13:03:56;98942.00;;;10.33
82636;BMP280;72317;37.280;-121.948;2024-03-23T13:08:56;98949.19;;;10.40
82636;BMP280;72317;37.280;-121.948;2024-03-23T13:13:57;99005.84;;;10.39
82636;BMP280;72317;37.280;-121.948;2024-03-23T13:18:58;99055.88;;;10.42
82636;BMP280;72317;37.280;-121.948;2024-03-23T13:23:59;99109.50;;;10.31
82636;BMP280;72317;37.280;-121.948;2024-03-23T13:28:59;99149.19;;;10.47
82636;BMP280;72317;37.280;-121.948;2024-03-23T13:34:00;99192.81;;;10.40
82636;BMP280;72317;37.280;-121.948;2024-03-23T13:39:02;99188.22;;;10.41
82636;BMP280;72317;37.280;-121.948;2024-03-23T13:44:03;99202.81;;;10.36
82636;BMP280;72317;37.280;-121.948;2024-03-23T13:49:05;99226.91;;;10.36
82636;BMP280;72317;37.280;-121.948;2024-03-23T13:54:06;99249.13;;;10.26
82636;BMP280;72317;37.280;-121.948;2024-03-23T13:59:06;99269.81;;;10.18
82636;BMP280;72317;37.280;-121.948;2024-03-23T14:04:07;99288.16;;;10.20
82636;BMP280;72317;37.280;-121.948;2024-03-23T14:09:08;99292.38;;;10.17
82636;BMP280;72317;37.280;-121.948;2024-03-23T14:14:09;99263.28;;;10.30
82636;BMP280;72317;37.280;-121.948;2024-03-23T14:19:10;99230.34;;;10.37
82636;BMP280;72317;37.280;-121.948;2024-03-23T14:24:10;99193.94;;;10.46
82636;BMP280;72317;37.280;-121.948;2024-03-23T14:29:11;99188.53;;;10.50
82636;BMP280;72317;37.280;-121.948;2024-03-23T14:34:12;99184.34;;;10.49
82636;BMP280;72317;37.280;-121.948;2024-03-23T14:39:13;99180.88;;;10.52
82636;BMP280;72317;37.280;-121.948;2024-03-23T14:44:13;99162.53;;;10.54
82636;BMP280;72317;37.280;-121.948;2024-03-23T14:49:15;99157.16;;;10.54
82636;BMP280;72317;37.280;-121.948;2024-03-23T14:54:16;99115.72;;;10.66
82636;BMP280;72317;37.280;-121.948;2024-03-23T14:59:16;98947.94;;;11.36
82636;BMP280;72317;37.280;-121.948;2024-03-23T15:04:17;98724.59;;;11.79
82636;BMP280;72317;37.280;-121.948;2024-03-23T15:09:18;98523.38;;;11.63
82636;BMP280;72317;37.280;-121.948;2024-03-23T15:14:18;98634.81;;;11.47
82636;BMP280;72317;37.280;-121.948;2024-03-23T15:19:19;98780.13;;;11.19
82636;BMP280;72317;37.280;-121.948;2024-03-23T15:24:20;98850.44;;;11.27
82636;BMP280;72317;37.280;-121.948;2024-03-23T15:29:21;98812.78;;;11.34
82636;BMP280;72317;37.280;-121.948;2024-03-23T15:34:22;98647.66;;;12.08
82636;BMP280;72317;37.280;-121.948;2024-03-23T15:39:22;98165.31;;;12.69
82636;BMP280;72317;37.280;-121.948;2024-03-23T15:44:23;97665.69;;;13.15
82636;BMP280;72317;37.280;-121.948;2024-03-23T15:49:24;97556.06;;;12.40
82636;BMP280;72317;37.280;-121.948;2024-03-23T15:54:25;97706.88;;;12.93
82636;BMP280;72317;37.280;-121.948;2024-03-23T15:59:26;97812.38;;;12.66
82636;BMP280;72317;37.280;-121.948;2024-03-23T16:04:27;97891.31;;;12.38
82636;BMP280;72317;37.280;-121.948;2024-03-23T16:09:27;98123.75;;;12.26
82636;BMP280;72317;37.280;-121.948;2024-03-23T16:14:28;98196.97;;;12.39
82636;BMP280;72317;37.280;-121.948;2024-03-23T16:19:29;98177.97;;;12.68
82636;BMP280;72317;37.280;-121.948;2024-03-23T16:24:30;97976.09;;;13.01
82636;BMP280;72317;37.280;-121.948;2024-03-23T16:29:30;98010.44;;;12.75
82636;BMP280;72317;37.280;-121.948;2024-03-23T16:34:31;98245.69;;;12.63
82636;BMP280;72317;37.280;-121.948;2024-03-23T16:39:32;98233.47;;;12.97
82636;BMP280;72317;37.280;-121.948;2024-03-23T16:44:32;97319.28;;;15.25
82636;BMP280;72317;37.280;-121.948;2024-03-23T16:49:33;96754.16;;;14.20
82636;BMP280;72317;37.280;-121.948;2024-03-23T16:54:34;96888.09;;;13.79
82636;BMP280;72317;37.280;-121.948;2024-03-23T16:59:35;96913.72;;;13.74
82636;BMP280;72317;37.280;-121.948;2024-03-23T17:04:35;96916.47;;;14.32
82636;BMP280;72317;37.280;-121.948;2024-03-23T17:09:46;96906.53;;;14.43
82636;BMP280;72317;37.280;-121.948;2024-03-23T17:14:47;97031.25;;;14.35
82636;BMP280;72317;37.280;-121.948;2024-03-23T17:19:48;97007.75;;;14.09
82636;BMP280;72317;37.280;-121.948;2024-03-23T17:24:52;96855.22;;;14.58
82636;BMP280;72317;37.280;-121.948;2024-03-23T17:29:53;97210.06;;;15.09
82636;BMP280;72317;37.280;-121.948;2024-03-23T17:34:54;96886.19;;;15.28
82636;BMP280;72317;37.280;-121.948;2024-03-23T17:39:54;97381.88;;;14.74
82636;BMP280;72317;37.280;-121.948;2024-03-23T17:44:55;97885.88;;;16.25
82636;BMP280;72317;37.280;-121.948;2024-03-23T17:49:56;97849.44;;;15.61
82636;BMP280;72317;37.280;-121.948;2024-03-23T17:54:56;97418.28;;;15.45
82636;BMP280;72317;37.280;-121.948;2024-03-23T17:59:57;97507.34;;;14.51
82636;BMP280;72317;37.280;-121.948;2024-03-23T18:04:58;98625.22;;;19.09
82636;BMP280;72317;37.280;-121.948;2024-03-23T18:09:59;98530.75;;;22.59
82636;BMP280;72317;37.280;-121.948;2024-03-23T18:14:59;98400.63;;;19.04
82636;BMP280;72317;37.280;-121.948;2024-03-23T18:20:00;98258.41;;;17.00
82636;BMP280;72317;37.280;-121.948;2024-03-23T18:25:01;98315.34;;;17.35
82636;BMP280;72317;37.280;-121.948;2024-03-23T18:30:02;98579.75;;;18.89
82636;BMP280;72317;37.280;-121.948;2024-03-23T18:35:03;98787.13;;;18.11
82636;BMP280;72317;37.280;-121.948;2024-03-23T18:40:04;98743.91;;;17.41
82636;BMP280;72317;37.280;-121.948;2024-03-23T18:45:06;98534.59;;;16.60
82636;BMP280;72317;37.280;-121.948;2024-03-23T18:50:06;97949.97;;;15.32
82636;BMP280;72317;37.280;-121.948;2024-03-23T18:55:07;97399.47;;;15.51
82636;BMP280;72317;37.280;-121.948;2024-03-23T19:00:08;97097.09;;;15.11
82636;BMP280;72317;37.280;-121.948;2024-03-23T19:05:09;97041.34;;;14.92
82636;BMP280;72317;37.280;-121.948;2024-03-23T19:10:10;98103.41;;;17.23
82636;BMP280;72317;37.280;-121.948;2024-03-23T19:15:11;98194.31;;;16.38
82636;BMP280;72317;37.280;-121.948;2024-03-23T19:20:12;97822.66;;;16.02
82636;BMP280;72317;37.280;-121.948;2024-03-23T19:25:12;97974.97;;;16.10
82636;BMP280;72317;37.280;-121.948;2024-03-23T19:30:13;98661.53;;;17.90
82636;BMP280;72317;37.280;-121.948;2024-03-23T19:35:14;98634.41;;;17.42
82636;BMP280;72317;37.280;-121.948;2024-03-23T19:40:15;98810.97;;;16.64
82636;BMP280;72317;37.280;-121.948;2024-03-23T19:45:16;98418.94;;;16.22
82636;BMP280;72317;37.280;-121.948;2024-03-23T19:50:16;98170.81;;;15.72
82636;BMP280;72317;37.280;-121.948;2024-03-23T19:55:17;97980.38;;;15.57
82636;BMP280;72317;37.280;-121.948;2024-03-23T20:00:18;97903.53;;;15.04
82636;BMP280;72317;37.280;-121.948;2024-03-23T20:05:19;98048.75;;;14.78
82636;BMP280;72317;37.280;-121.948;2024-03-23T20:10:20;97913.56;;;14.71
82636;BMP280;72317;37.280;-121.948;2024-03-23T20:15:20;97780.06;;;14.04
82636;BMP280;72317;37.280;-121.948;2024-03-23T20:20:21;98160.16;;;13.80
82636;BMP280;72317;37.280;-121.948;2024-03-23T20:25:22;98562.72;;;13.78
82636;BMP280;72317;37.280;-121.948;2024-03-23T20:30:23;98214.03;;;13.89
82636;BMP280;72317;37.280;-121.948;2024-03-23T20:35:23;98410.06;;;14.75
82636;BMP280;72317;37.280;-121.948;2024-03-23T20:40:24;98642.03;;;15.64
82636;BMP280;72317;37.280;-121.948;2024-03-23T20:45:25;98808.59;;;17.02
82636;BMP280;72317;37.280;-121.948;2024-03-23T20:50:26;99132.41;;;17.15
82636;BMP280;72317;37.280;-121.948;2024-03-23T20:55:27;99366.97;;;16.96
82636;BMP280;72317;37.280;-121.948;2024-03-23T21:00:27;99364.56;;;16.98
82636;BMP280;72317;37.280;-121.948;2024-03-23T21:05:28;99343.56;;;16.55
82636;BMP280;72317;37.280;-121.948;2024-03-23T21:10:29;99314.38;;;17.41
82636;BMP280;72317;37.280;-121.948;2024-03-23T21:15:30;99453.28;;;17.94
82636;BMP280;72317;37.280;-121.948;2024-03-23T21:20:30;99611.97;;;17.73
82636;BMP280;72317;37.280;-121.948;2024-03-23T21:25:32;99759.31;;;17.63
82636;BMP280;72317;37.280;-121.948;2024-03-23T21:30:32;99845.97;;;16.92
82636;BMP280;72317;37.280;-121.948;2024-03-23T21:35:33;99890.19;;;17.02
82636;BMP280;72317;37.280;-121.948;2024-03-23T21:40:34;99653.66;;;17.88
82636;BMP280;72317;37.280;-121.948;2024-03-23T21:45:36;98632.06;;;16.47
82636;BMP280;72317;37.280;-121.948;2024-03-23T21:50:37;98003.31;;;16.59
82636;BMP280;72317;37.280;-121.948;2024-03-23T21:55:37;96983.06;;;16.69
82636;BMP280;72317;37.280;-121.948;2024-03-23T22:00:38;96303.63;;;16.70
82636;BMP280;72317;37.280;-121.948;2024-03-23T22:05:41;96444.66;;;16.03
82636;BMP280;72317;37.280;-121.948;2024-03-23T22:10:42;96746.59;;;17.04
82636;BMP280;72317;37.280;-121.948;2024-03-23T22:15:43;96922.63;;;15.88
82636;BMP280;72317;37.280;-121.948;2024-03-23T22:20:43;96905.16;;;15.61
82636;BMP280;72317;37.280;-121.948;2024-03-23T22:25:48;97351.78;;;16.57
82636;BMP280;72317;37.280;-121.948;2024-03-23T22:30:59;97108.78;;;15.77
82636;BMP280;72317;37.280;-121.948;2024-03-23T22:36:00;96685.41;;;15.68
82636;BMP280;72317;37.280;-121.948;2024-03-23T22:41:02;95119.16;;;15.53
82636;BMP280;72317;37.280;-121.948;2024-03-23T22:46:05;94616.50;;;15.85
82636;BMP280;72317;37.280;-121.948;2024-03-23T22:51:06;93507.06;;;14.97
82636;BMP280;72317;37.280;-121.948;2024-03-23T22:56:06;93665.00;;;14.67
82636;BMP280;72317;37.280;-121.948;2024-03-23T23:01:07;93772.69;;;15.21
82636;BMP280;72317;37.280;-121.948;2024-03-23T23:06:08;94221.41;;;15.84
82636;BMP280;72317;37.280;-121.948;2024-03-23T23:11:09;94450.97;;;15.80
82636;BMP280;72317;37.280;-121.948;2024-03-23T23:16:09;94871.59;;;15.21
82636;BMP280;72317;37.280;-121.948;2024-03-23T23:21:10;95004.19;;;14.99
82636;BMP280;72317;37.280;-121.948;2024-03-23T23:26:11;95352.22;;;15.52
82636;BMP280;72317;37.280;-121.948;2024-03-23T23:31:11;95559.81;;;15.52
82636;BMP280;72317;37.280;-121.948;2024-03-23T23:36:13;95620.06;;;15.81
82636;BMP280;72317;37.280;-121.948;2024-03-23T23:41:13;95711.66;;;15.60
82636;BMP280;72317;37.280;-121.948;2024-03-23T23:46:14;95800.56;;;15.47
82636;BMP280;72317;37.280;-121.948;2024-03-23T23:51:15;95689.41;;;15.41
82636;BMP280;72317;37.280;-121.948;2024-03-23T23:56:16;95816.16;;;15.17
